Sacramento, California
Current Conditions -  °F | °C
As of 5:53 AM on Monday 22 Dec 2014 (Local Time) from KSAC Reporting Station
Overcast Overcast  
Wind Chill: 58°   Ceiling: 1200
Heat Index: 58°   Visibility: 10mi
Dew Point: 55°   Wind: 7mph
Humidity: 90%   Direction: 320°NW
Pressure: 30.25"   Gusts: NA
Location:  38.58°N, 121.49°W
Report Text: KSAC 221353Z 32006KT 10SM OVC012 14/13 A3025 RMK AO2 SLP243 T01440128
Loading
Personal Weather Stations






























Interactive Weather Map New forecast layout! Learn more

10-Day Weather Forecast

Advertisements
Track Severe Weather on mobile